sensor_id;sensor_type;location;lat;lon;timestamp;temperature;humidity
8002;DHT22;4046;48.774;8.732;2023-12-22T00:02:28;23.10;71.00
8002;DHT22;4046;48.774;8.732;2023-12-22T00:05:26;23.00;70.90
8002;DHT22;4046;48.774;8.732;2023-12-22T00:08:08;23.00;71.00
8002;DHT22;4046;48.774;8.732;2023-12-22T00:10:41;23.00;71.00
8002;DHT22;4046;48.774;8.732;2023-12-22T00:16:23;23.00;71.00
8002;DHT22;4046;48.774;8.732;2023-12-22T00:19:16;23.00;71.00
8002;DHT22;4046;48.774;8.732;2023-12-22T00:22:23;23.30;71.30
8002;DHT22;4046;48.774;8.732;2023-12-22T00:25:20;23.00;71.00
8002;DHT22;4046;48.774;8.732;2023-12-22T00:28:09;23.00;71.00
8002;DHT22;4046;48.774;8.732;2023-12-22T00:30:35;23.00;71.00
8002;DHT22;4046;48.774;8.732;2023-12-22T00:33:12;22.90;70.90
8002;DHT22;4046;48.774;8.732;2023-12-22T00:36:06;23.00;71.10
8002;DHT22;4046;48.774;8.732;2023-12-22T00:38:34;23.00;71.10
8002;DHT22;4046;48.774;8.732;2023-12-22T00:41:06;23.00;71.10
8002;DHT22;4046;48.774;8.732;2023-12-22T00:43:38;23.00;71.10
8002;DHT22;4046;48.774;8.732;2023-12-22T00:47:10;23.00;71.00
8002;DHT22;4046;48.774;8.732;2023-12-22T00:50:00;23.00;71.00
8002;DHT22;4046;48.774;8.732;2023-12-22T00:53:32;23.00;71.00
8002;DHT22;4046;48.774;8.732;2023-12-22T00:56:05;23.00;71.00
8002;DHT22;4046;48.774;8.732;2023-12-22T00:58:31;23.00;71.10
8002;DHT22;4046;48.774;8.732;2023-12-22T01:01:06;23.00;71.10
8002;DHT22;4046;48.774;8.732;2023-12-22T01:03:35;23.00;71.10
8002;DHT22;4046;48.774;8.732;2023-12-22T01:06:13;23.00;71.10
8002;DHT22;4046;48.774;8.732;2023-12-22T01:09:07;22.90;71.10
8002;DHT22;4046;48.774;8.732;2023-12-22T01:11:52;22.90;71.30
8002;DHT22;4046;48.774;8.732;2023-12-22T01:14:24;22.90;71.30
8002;DHT22;4046;48.774;8.732;2023-12-22T01:16:50;22.90;71.30
8002;DHT22;4046;48.774;8.732;2023-12-22T01:19:17;22.80;71.30
8002;DHT22;4046;48.774;8.732;2023-12-22T01:21:46;22.80;71.40
8002;DHT22;4046;48.774;8.732;2023-12-22T01:24:52;22.80;71.30
8002;DHT22;4046;48.774;8.732;2023-12-22T01:27:29;22.80;71.30
8002;DHT22;4046;48.774;8.732;2023-12-22T01:30:31;22.90;71.40
8002;DHT22;4046;48.774;8.732;2023-12-22T01:33:20;22.90;71.40
8002;DHT22;4046;48.774;8.732;2023-12-22T01:36:07;23.00;71.60
8002;DHT22;4046;48.774;8.732;2023-12-22T01:38:33;22.90;71.40
8002;DHT22;4046;48.774;8.732;2023-12-22T01:41:28;22.90;71.40
8002;DHT22;4046;48.774;8.732;2023-12-22T01:44:02;22.90;71.40
8002;DHT22;4046;48.774;8.732;2023-12-22T01:47:03;22.90;71.40
8002;DHT22;4046;48.774;8.732;2023-12-22T01:50:10;22.90;71.30
8002;DHT22;4046;48.774;8.732;2023-12-22T01:52:41;22.90;71.30
8002;DHT22;4046;48.774;8.732;2023-12-22T01:55:31;22.90;71.40
8002;DHT22;4046;48.774;8.732;2023-12-22T01:58:33;22.90;71.30
8002;DHT22;4046;48.774;8.732;2023-12-22T02:01:19;22.90;72.10
8002;DHT22;4046;48.774;8.732;2023-12-22T02:04:09;23.00;71.40
8002;DHT22;4046;48.774;8.732;2023-12-22T02:06:44;22.90;71.30
8002;DHT22;4046;48.774;8.732;2023-12-22T02:09:53;22.90;71.30
8002;DHT22;4046;48.774;8.732;2023-12-22T02:12:22;22.90;71.40
8002;DHT22;4046;48.774;8.732;2023-12-22T02:14:48;22.90;71.30
8002;DHT22;4046;48.774;8.732;2023-12-22T02:17:29;22.90;71.30
8002;DHT22;4046;48.774;8.732;2023-12-22T02:20:16;22.90;71.30
8002;DHT22;4046;48.774;8.732;2023-12-22T02:22:45;22.90;71.30
8002;DHT22;4046;48.774;8.732;2023-12-22T02:26:02;22.90;71.30
8002;DHT22;4046;48.774;8.732;2023-12-22T02:28:50;22.90;71.40
8002;DHT22;4046;48.774;8.732;2023-12-22T02:31:54;22.90;71.40
8002;DHT22;4046;48.774;8.732;2023-12-22T02:35:11;23.20;71.70
8002;DHT22;4046;48.774;8.732;2023-12-22T02:38:06;22.90;71.40
8002;DHT22;4046;48.774;8.732;2023-12-22T02:44:12;22.90;71.40
8002;DHT22;4046;48.774;8.732;2023-12-22T02:46:47;22.90;71.40
8002;DHT22;4046;48.774;8.732;2023-12-22T02:49:13;23.20;71.80
8002;DHT22;4046;48.774;8.732;2023-12-22T02:52:10;22.80;71.40
8002;DHT22;4046;48.774;8.732;2023-12-22T02:55:07;22.80;71.40
8002;DHT22;4046;48.774;8.732;2023-12-22T02:57:51;22.80;71.40
8002;DHT22;4046;48.774;8.732;2023-12-22T03:00:23;22.80;71.40
8002;DHT22;4046;48.774;8.732;2023-12-22T03:02:52;22.80;71.40
8002;DHT22;4046;48.774;8.732;2023-12-22T03:05:28;22.80;71.40
8002;DHT22;4046;48.774;8.732;2023-12-22T03:08:06;22.80;71.40
8002;DHT22;4046;48.774;8.732;2023-12-22T03:11:09;22.80;71.40
8002;DHT22;4046;48.774;8.732;2023-12-22T03:14:05;22.80;71.30
8002;DHT22;4046;48.774;8.732;2023-12-22T03:16:33;22.80;71.30
8002;DHT22;4046;48.774;8.732;2023-12-22T03:19:08;22.80;71.40
8002;DHT22;4046;48.774;8.732;2023-12-22T03:21:49;22.80;71.40
8002;DHT22;4046;48.774;8.732;2023-12-22T03:27:15;22.90;71.50
8002;DHT22;4046;48.774;8.732;2023-12-22T03:32:57;22.80;71.40
8002;DHT22;4046;48.774;8.732;2023-12-22T03:36:16;22.80;71.40
8002;DHT22;4046;48.774;8.732;2023-12-22T03:39:09;22.80;71.50
8002;DHT22;4046;48.774;8.732;2023-12-22T03:42:11;22.80;71.40
8002;DHT22;4046;48.774;8.732;2023-12-22T03:48:27;22.80;71.50
8002;DHT22;4046;48.774;8.732;2023-12-22T03:51:01;22.80;71.40
8002;DHT22;4046;48.774;8.732;2023-12-22T03:54:11;22.80;71.50
8002;DHT22;4046;48.774;8.732;2023-12-22T03:57:12;22.80;71.40
8002;DHT22;4046;48.774;8.732;2023-12-22T03:59:57;22.80;71.40
8002;DHT22;4046;48.774;8.732;2023-12-22T04:03:03;22.80;71.40
8002;DHT22;4046;48.774;8.732;2023-12-22T04:05:37;22.80;71.40
8002;DHT22;4046;48.774;8.732;2023-12-22T04:08:26;22.80;71.40
8002;DHT22;4046;48.774;8.732;2023-12-22T04:11:08;22.80;71.40
8002;DHT22;4046;48.774;8.732;2023-12-22T04:13:40;22.80;71.40
8002;DHT22;4046;48.774;8.732;2023-12-22T04:16:48;22.80;71.40
8002;DHT22;4046;48.774;8.732;2023-12-22T04:20:13;22.80;71.30
8002;DHT22;4046;48.774;8.732;2023-12-22T04:22:45;22.80;71.30
8002;DHT22;4046;48.774;8.732;2023-12-22T04:25:11;22.80;71.40
8002;DHT22;4046;48.774;8.732;2023-12-22T04:27:37;22.80;71.30
8002;DHT22;4046;48.774;8.732;2023-12-22T04:30:48;22.80;71.30
8002;DHT22;4046;48.774;8.732;2023-12-22T04:36:36;22.80;71.30
8002;DHT22;4046;48.774;8.732;2023-12-22T04:39:12;22.80;71.40
8002;DHT22;4046;48.774;8.732;2023-12-22T04:44:53;22.80;71.40
8002;DHT22;4046;48.774;8.732;2023-12-22T04:50:46;22.80;71.30
8002;DHT22;4046;48.774;8.732;2023-12-22T04:53:15;22.90;71.50
8002;DHT22;4046;48.774;8.732;2023-12-22T04:55:50;22.80;71.30
8002;DHT22;4046;48.774;8.732;2023-12-22T04:58:31;22.80;71.40
8002;DHT22;4046;48.774;8.732;2023-12-22T05:01:44;22.80;71.30
8002;DHT22;4046;48.774;8.732;2023-12-22T05:04:19;22.80;71.30
8002;DHT22;4046;48.774;8.732;2023-12-22T05:07:03;22.80;71.40
8002;DHT22;4046;48.774;8.732;2023-12-22T05:09:44;22.80;71.40
8002;DHT22;4046;48.774;8.732;2023-12-22T05:12:36;22.80;71.30
8002;DHT22;4046;48.774;8.732;2023-12-22T05:15:25;22.80;71.40
8002;DHT22;4046;48.774;8.732;2023-12-22T05:21:25;22.80;71.30
8002;DHT22;4046;48.774;8.732;2023-12-22T05:24:15;22.80;71.40
8002;DHT22;4046;48.774;8.732;2023-12-22T05:27:06;22.90;71.40
8002;DHT22;4046;48.774;8.732;2023-12-22T05:30:04;22.80;71.40
8002;DHT22;4046;48.774;8.732;2023-12-22T05:32:52;22.90;71.40
8002;DHT22;4046;48.774;8.732;2023-12-22T05:35:40;22.80;71.30
8002;DHT22;4046;48.774;8.732;2023-12-22T05:38:13;22.80;71.30
8002;DHT22;4046;48.774;8.732;2023-12-22T05:40:54;22.80;71.30
8002;DHT22;4046;48.774;8.732;2023-12-22T05:43:34;22.80;71.30
8002;DHT22;4046;48.774;8.732;2023-12-22T05:46:41;22.80;71.30
8002;DHT22;4046;48.774;8.732;2023-12-22T05:49:47;22.80;71.30
8002;DHT22;4046;48.774;8.732;2023-12-22T05:52:49;22.80;71.50
8002;DHT22;4046;48.774;8.732;2023-12-22T05:55:24;22.80;71.30
8002;DHT22;4046;48.774;8.732;2023-12-22T05:57:53;22.80;71.40
8002;DHT22;4046;48.774;8.732;2023-12-22T06:01:04;22.80;72.10
8002;DHT22;4046;48.774;8.732;2023-12-22T06:07:02;22.80;71.30
8002;DHT22;4046;48.774;8.732;2023-12-22T06:09:27;22.40;70.90
8002;DHT22;4046;48.774;8.732;2023-12-22T06:11:54;23.20;71.80
8002;DHT22;4046;48.774;8.732;2023-12-22T06:14:33;22.80;71.40
8002;DHT22;4046;48.774;8.732;2023-12-22T06:17:51;22.80;71.40
8002;DHT22;4046;48.774;8.732;2023-12-22T06:20:28;22.80;71.40
8002;DHT22;4046;48.774;8.732;2023-12-22T06:23:24;22.80;71.30
8002;DHT22;4046;48.774;8.732;2023-12-22T06:29:40;22.80;71.30
8002;DHT22;4046;48.774;8.732;2023-12-22T06:32:31;22.80;71.30
8002;DHT22;4046;48.774;8.732;2023-12-22T06:35:27;22.80;71.30
8002;DHT22;4046;48.774;8.732;2023-12-22T06:37:59;22.80;71.30
8002;DHT22;4046;48.774;8.732;2023-12-22T06:41:04;22.80;71.30
8002;DHT22;4046;48.774;8.732;2023-12-22T06:43:39;22.80;71.30
8002;DHT22;4046;48.774;8.732;2023-12-22T06:46:51;22.80;71.30
8002;DHT22;4046;48.774;8.732;2023-12-22T06:49:59;22.80;71.30
8002;DHT22;4046;48.774;8.732;2023-12-22T06:52:56;22.80;71.30
8002;DHT22;4046;48.774;8.732;2023-12-22T06:55:29;22.80;71.40
8002;DHT22;4046;48.774;8.732;2023-12-22T06:57:55;22.80;71.30
8002;DHT22;4046;48.774;8.732;2023-12-22T07:06:49;22.80;71.30
8002;DHT22;4046;48.774;8.732;2023-12-22T07:11:51;22.80;71.30
8002;DHT22;4046;48.774;8.732;2023-12-22T07:14:40;22.80;71.30
8002;DHT22;4046;48.774;8.732;2023-12-22T07:17:37;22.80;71.30
8002;DHT22;4046;48.774;8.732;2023-12-22T07:20:12;23.20;71.70
8002;DHT22;4046;48.774;8.732;2023-12-22T07:23:14;22.80;71.30
8002;DHT22;4046;48.774;8.732;2023-12-22T07:25:39;22.80;71.30
8002;DHT22;4046;48.774;8.732;2023-12-22T07:28:19;22.80;71.30
8002;DHT22;4046;48.774;8.732;2023-12-22T07:31:24;22.80;71.30
8002;DHT22;4046;48.774;8.732;2023-12-22T07:34:02;23.20;71.80
8002;DHT22;4046;48.774;8.732;2023-12-22T07:36:52;22.80;71.30
8002;DHT22;4046;48.774;8.732;2023-12-22T07:39:33;22.80;71.30
8002;DHT22;4046;48.774;8.732;2023-12-22T07:42:12;22.80;71.30
8002;DHT22;4046;48.774;8.732;2023-12-22T07:45:17;22.80;71.30
8002;DHT22;4046;48.774;8.732;2023-12-22T07:47:58;22.80;71.30
8002;DHT22;4046;48.774;8.732;2023-12-22T07:51:21;22.80;71.30
8002;DHT22;4046;48.774;8.732;2023-12-22T07:54:27;22.80;71.30
8002;DHT22;4046;48.774;8.732;2023-12-22T08:00:00;22.80;71.30
8002;DHT22;4046;48.774;8.732;2023-12-22T08:05:52;22.80;71.40
8002;DHT22;4046;48.774;8.732;2023-12-22T08:11:45;22.80;71.30
8002;DHT22;4046;48.774;8.732;2023-12-22T08:14:12;22.80;71.30
8002;DHT22;4046;48.774;8.732;2023-12-22T08:16:44;22.80;71.30
8002;DHT22;4046;48.774;8.732;2023-12-22T08:19:29;22.80;71.30
8002;DHT22;4046;48.774;8.732;2023-12-22T08:21:58;22.80;71.30
8002;DHT22;4046;48.774;8.732;2023-12-22T08:24:56;22.80;71.30
8002;DHT22;4046;48.774;8.732;2023-12-22T08:27:31;22.80;71.30
8002;DHT22;4046;48.774;8.732;2023-12-22T08:30:11;22.80;71.30
8002;DHT22;4046;48.774;8.732;2023-12-22T08:33:31;22.80;71.30
8002;DHT22;4046;48.774;8.732;2023-12-22T08:36:06;22.80;71.30
8002;DHT22;4046;48.774;8.732;2023-12-22T08:39:08;22.80;71.30
8002;DHT22;4046;48.774;8.732;2023-12-22T08:41:45;22.80;71.30
8002;DHT22;4046;48.774;8.732;2023-12-22T08:44:22;22.80;71.20
8002;DHT22;4046;48.774;8.732;2023-12-22T08:47:44;22.80;71.30
8002;DHT22;4046;48.774;8.732;2023-12-22T08:50:39;22.80;72.00
8002;DHT22;4046;48.774;8.732;2023-12-22T08:53:28;22.80;71.20
8002;DHT22;4046;48.774;8.732;2023-12-22T08:55:56;22.90;71.30
8002;DHT22;4046;48.774;8.732;2023-12-22T08:58:53;22.80;71.10
8002;DHT22;4046;48.774;8.732;2023-12-22T09:01:37;22.90;71.30
8002;DHT22;4046;48.774;8.732;2023-12-22T09:07:41;22.90;71.30
8002;DHT22;4046;48.774;8.732;2023-12-22T09:10:36;22.90;71.30
8002;DHT22;4046;48.774;8.732;2023-12-22T09:13:40;22.90;71.30
8002;DHT22;4046;48.774;8.732;2023-12-22T09:16:06;22.90;71.30
8002;DHT22;4046;48.774;8.732;2023-12-22T09:18:52;22.90;71.30
8002;DHT22;4046;48.774;8.732;2023-12-22T09:21:49;22.90;71.30
8002;DHT22;4046;48.774;8.732;2023-12-22T09:30:54;22.90;71.20
8002;DHT22;4046;48.774;8.732;2023-12-22T09:33:36;22.90;71.30
8002;DHT22;4046;48.774;8.732;2023-12-22T09:36:03;22.90;71.30
8002;DHT22;4046;48.774;8.732;2023-12-22T09:38:33;22.90;71.20
8002;DHT22;4046;48.774;8.732;2023-12-22T09:41:35;22.90;71.30
8002;DHT22;4046;48.774;8.732;2023-12-22T09:44:11;22.90;71.30
8002;DHT22;4046;48.774;8.732;2023-12-22T09:50:02;22.90;71.20
8002;DHT22;4046;48.774;8.732;2023-12-22T09:56:46;22.60;70.90
8002;DHT22;4046;48.774;8.732;2023-12-22T09:59:40;22.90;71.30
8002;DHT22;4046;48.774;8.732;2023-12-22T10:03:22;22.80;71.10
8002;DHT22;4046;48.774;8.732;2023-12-22T10:09:41;22.90;71.30
8002;DHT22;4046;48.774;8.732;2023-12-22T10:12:34;22.90;71.30
8002;DHT22;4046;48.774;8.732;2023-12-22T10:15:14;22.80;71.10
8002;DHT22;4046;48.774;8.732;2023-12-22T10:18:17;22.80;71.20
8002;DHT22;4046;48.774;8.732;2023-12-22T10:20:43;22.80;71.20
8002;DHT22;4046;48.774;8.732;2023-12-22T10:23:10;22.70;71.50
8002;DHT22;4046;48.774;8.732;2023-12-22T10:25:57;22.70;71.50
8002;DHT22;4046;48.774;8.732;2023-12-22T10:28:50;22.70;71.40
8002;DHT22;4046;48.774;8.732;2023-12-22T10:31:17;22.90;71.60
8002;DHT22;4046;48.774;8.732;2023-12-22T10:33:43;22.70;71.60
8002;DHT22;4046;48.774;8.732;2023-12-22T10:36:09;22.60;71.50
8002;DHT22;4046;48.774;8.732;2023-12-22T10:38:36;22.60;71.50
8002;DHT22;4046;48.774;8.732;2023-12-22T10:41:08;22.70;71.50
8002;DHT22;4046;48.774;8.732;2023-12-22T10:43:43;22.70;71.40
8002;DHT22;4046;48.774;8.732;2023-12-22T10:46:15;22.70;71.30
8002;DHT22;4046;48.774;8.732;2023-12-22T10:49:07;22.70;71.30
8002;DHT22;4046;48.774;8.732;2023-12-22T10:55:53;22.70;71.30
8002;DHT22;4046;48.774;8.732;2023-12-22T11:02:11;22.80;71.40
8002;DHT22;4046;48.774;8.732;2023-12-22T11:05:04;22.80;71.20
8002;DHT22;4046;48.774;8.732;2023-12-22T11:07:51;22.80;71.20
8002;DHT22;4046;48.774;8.732;2023-12-22T11:11:17;22.80;71.20
8002;DHT22;4046;48.774;8.732;2023-12-22T11:13:51;22.80;71.20
8002;DHT22;4046;48.774;8.732;2023-12-22T11:16:21;22.80;71.20
8002;DHT22;4046;48.774;8.732;2023-12-22T11:18:49;22.80;71.10
8002;DHT22;4046;48.774;8.732;2023-12-22T11:21:47;22.80;71.10
8002;DHT22;4046;48.774;8.732;2023-12-22T11:24:28;22.90;71.20
8002;DHT22;4046;48.774;8.732;2023-12-22T11:30:07;22.80;71.20
8002;DHT22;4046;48.774;8.732;2023-12-22T11:32:34;22.90;71.20
8002;DHT22;4046;48.774;8.732;2023-12-22T11:35:03;22.90;71.20
8002;DHT22;4046;48.774;8.732;2023-12-22T11:37:42;22.90;71.20
8002;DHT22;4046;48.774;8.732;2023-12-22T11:40:18;22.90;71.20
8002;DHT22;4046;48.774;8.732;2023-12-22T11:46:11;22.90;71.20
8002;DHT22;4046;48.774;8.732;2023-12-22T11:48:38;22.90;71.20
8002;DHT22;4046;48.774;8.732;2023-12-22T11:51:43;22.90;71.10
8002;DHT22;4046;48.774;8.732;2023-12-22T11:54:52;22.90;71.10
8002;DHT22;4046;48.774;8.732;2023-12-22T12:03:20;22.90;71.10
8002;DHT22;4046;48.774;8.732;2023-12-22T12:06:11;22.90;71.10
8002;DHT22;4046;48.774;8.732;2023-12-22T12:09:12;22.90;71.00
8002;DHT22;4046;48.774;8.732;2023-12-22T12:14:55;22.90;71.00
8002;DHT22;4046;48.774;8.732;2023-12-22T12:18:06;22.90;71.10
8002;DHT22;4046;48.774;8.732;2023-12-22T12:24:40;22.90;71.20
8002;DHT22;4046;48.774;8.732;2023-12-22T12:34:44;22.90;71.10
8002;DHT22;4046;48.774;8.732;2023-12-22T12:37:11;23.10;71.30
8002;DHT22;4046;48.774;8.732;2023-12-22T12:40:11;22.90;71.10
8002;DHT22;4046;48.774;8.732;2023-12-22T12:42:46;22.90;71.10
8002;DHT22;4046;48.774;8.732;2023-12-22T12:48:27;22.90;71.10
8002;DHT22;4046;48.774;8.732;2023-12-22T12:50:54;22.90;71.10
8002;DHT22;4046;48.774;8.732;2023-12-22T12:53:36;22.90;71.10
8002;DHT22;4046;48.774;8.732;2023-12-22T12:56:23;22.90;71.10
8002;DHT22;4046;48.774;8.732;2023-12-22T12:59:38;22.80;71.10
8002;DHT22;4046;48.774;8.732;2023-12-22T13:02:11;22.80;71.20
8002;DHT22;4046;48.774;8.732;2023-12-22T13:04:46;22.70;71.30
8002;DHT22;4046;48.774;8.732;2023-12-22T13:07:32;22.70;71.40
8002;DHT22;4046;48.774;8.732;2023-12-22T13:10:25;22.60;71.40
8002;DHT22;4046;48.774;8.732;2023-12-22T13:16:18;22.60;71.50
8002;DHT22;4046;48.774;8.732;2023-12-22T13:19:33;22.50;71.50
8002;DHT22;4046;48.774;8.732;2023-12-22T13:23:20;22.50;71.50
8002;DHT22;4046;48.774;8.732;2023-12-22T13:25:40;22.50;71.60
8002;DHT22;4046;48.774;8.732;2023-12-22T13:28:24;22.50;71.50
8002;DHT22;4046;48.774;8.732;2023-12-22T13:30:54;22.50;72.70
8002;DHT22;4046;48.774;8.732;2023-12-22T13:33:20;22.40;73.10
8002;DHT22;4046;48.774;8.732;2023-12-22T13:36:12;22.40;72.90
8002;DHT22;4046;48.774;8.732;2023-12-22T13:39:08;22.50;72.70
8002;DHT22;4046;48.774;8.732;2023-12-22T13:41:35;22.40;72.50
8002;DHT22;4046;48.774;8.732;2023-12-22T13:44:33;22.50;72.40
8002;DHT22;4046;48.774;8.732;2023-12-22T13:50:32;22.60;72.20
8002;DHT22;4046;48.774;8.732;2023-12-22T13:53:10;22.60;72.10
8002;DHT22;4046;48.774;8.732;2023-12-22T13:56:02;22.60;72.00
8002;DHT22;4046;48.774;8.732;2023-12-22T13:58:47;22.60;71.90
8002;DHT22;4046;48.774;8.732;2023-12-22T14:01:48;22.60;72.60
8002;DHT22;4046;48.774;8.732;2023-12-22T14:04:26;22.60;72.10
8002;DHT22;4046;48.774;8.732;2023-12-22T14:06:52;22.60;72.10
8002;DHT22;4046;48.774;8.732;2023-12-22T14:09:30;22.60;72.10
8002;DHT22;4046;48.774;8.732;2023-12-22T14:12:25;22.90;72.30
8002;DHT22;4046;48.774;8.732;2023-12-22T14:15:12;22.70;72.00
8002;DHT22;4046;48.774;8.732;2023-12-22T14:21:37;22.70;71.80
8002;DHT22;4046;48.774;8.732;2023-12-22T14:24:34;22.70;71.70
8002;DHT22;4046;48.774;8.732;2023-12-22T14:30:42;22.70;71.60
8002;DHT22;4046;48.774;8.732;2023-12-22T14:37:07;22.80;71.70
8002;DHT22;4046;48.774;8.732;2023-12-22T14:40:09;22.80;71.60
8002;DHT22;4046;48.774;8.732;2023-12-22T14:43:11;22.70;71.60
8002;DHT22;4046;48.774;8.732;2023-12-22T14:46:26;22.80;71.80
8002;DHT22;4046;48.774;8.732;2023-12-22T14:50:08;22.80;71.80
8002;DHT22;4046;48.774;8.732;2023-12-22T14:53:12;22.80;71.70
8002;DHT22;4046;48.774;8.732;2023-12-22T14:56:46;22.80;71.80
8002;DHT22;4046;48.774;8.732;2023-12-22T15:00:25;22.80;71.60
8002;DHT22;4046;48.774;8.732;2023-12-22T15:03:21;22.80;71.60
8002;DHT22;4046;48.774;8.732;2023-12-22T15:06:26;22.80;71.80
8002;DHT22;4046;48.774;8.732;2023-12-22T15:09:18;22.80;71.70
8002;DHT22;4046;48.774;8.732;2023-12-22T15:11:58;22.80;71.60
8002;DHT22;4046;48.774;8.732;2023-12-22T15:15:01;22.80;71.70
8002;DHT22;4046;48.774;8.732;2023-12-22T15:17:30;22.80;71.60
8002;DHT22;4046;48.774;8.732;2023-12-22T15:20:17;22.80;71.70
8002;DHT22;4046;48.774;8.732;2023-12-22T15:22:46;22.80;71.90
8002;DHT22;4046;48.774;8.732;2023-12-22T15:25:29;22.40;71.60
8002;DHT22;4046;48.774;8.732;2023-12-22T15:28:31;22.80;71.90
8002;DHT22;4046;48.774;8.732;2023-12-22T15:31:08;22.80;71.80
8002;DHT22;4046;48.774;8.732;2023-12-22T15:36:40;22.80;72.10
8002;DHT22;4046;48.774;8.732;2023-12-22T15:39:32;22.80;72.10
8002;DHT22;4046;48.774;8.732;2023-12-22T15:42:32;22.80;72.10
8002;DHT22;4046;48.774;8.732;2023-12-22T15:45:32;22.80;72.00
8002;DHT22;4046;48.774;8.732;2023-12-22T15:48:00;22.80;71.90
8002;DHT22;4046;48.774;8.732;2023-12-22T15:50:37;22.80;72.10
8002;DHT22;4046;48.774;8.732;2023-12-22T15:53:14;22.80;72.10
8002;DHT22;4046;48.774;8.732;2023-12-22T15:55:40;22.80;72.10
8002;DHT22;4046;48.774;8.732;2023-12-22T15:58:06;22.80;72.00
8002;DHT22;4046;48.774;8.732;2023-12-22T16:00:31;22.80;72.00
8002;DHT22;4046;48.774;8.732;2023-12-22T16:06:31;22.80;72.00
8002;DHT22;4046;48.774;8.732;2023-12-22T16:09:14;23.10;72.20
8002;DHT22;4046;48.774;8.732;2023-12-22T16:11:40;23.00;72.20
8002;DHT22;4046;48.774;8.732;2023-12-22T16:14:06;22.80;72.00
8002;DHT22;4046;48.774;8.732;2023-12-22T16:16:58;22.80;71.90
8002;DHT22;4046;48.774;8.732;2023-12-22T16:19:24;22.90;72.00
8002;DHT22;4046;48.774;8.732;2023-12-22T16:22:18;22.80;71.90
8002;DHT22;4046;48.774;8.732;2023-12-22T16:25:10;22.80;71.80
8002;DHT22;4046;48.774;8.732;2023-12-22T16:27:50;22.80;71.80
8002;DHT22;4046;48.774;8.732;2023-12-22T16:31:03;22.80;71.90
8002;DHT22;4046;48.774;8.732;2023-12-22T16:33:32;22.80;71.80
8002;DHT22;4046;48.774;8.732;2023-12-22T16:36:19;22.80;71.80
8002;DHT22;4046;48.774;8.732;2023-12-22T16:39:25;22.80;71.80
8002;DHT22;4046;48.774;8.732;2023-12-22T16:42:09;22.80;71.90
8002;DHT22;4046;48.774;8.732;2023-12-22T16:45:09;22.80;72.60
8002;DHT22;4046;48.774;8.732;2023-12-22T16:47:35;22.80;71.90
8002;DHT22;4046;48.774;8.732;2023-12-22T16:50:10;22.80;71.80
8002;DHT22;4046;48.774;8.732;2023-12-22T16:52:36;22.80;72.10
8002;DHT22;4046;48.774;8.732;2023-12-22T16:55:21;22.80;72.10
8002;DHT22;4046;48.774;8.732;2023-12-22T16:57:47;22.80;72.10
8002;DHT22;4046;48.774;8.732;2023-12-22T17:00:13;22.80;72.10
8002;DHT22;4046;48.774;8.732;2023-12-22T17:02:40;22.80;72.00
8002;DHT22;4046;48.774;8.732;2023-12-22T17:05:07;22.80;71.90
8002;DHT22;4046;48.774;8.732;2023-12-22T17:07:34;22.80;71.90
8002;DHT22;4046;48.774;8.732;2023-12-22T17:10:14;22.80;71.90
8002;DHT22;4046;48.774;8.732;2023-12-22T17:12:40;22.80;71.80
8002;DHT22;4046;48.774;8.732;2023-12-22T17:15:06;22.80;71.80
8002;DHT22;4046;48.774;8.732;2023-12-22T17:17:32;22.80;71.80
8002;DHT22;4046;48.774;8.732;2023-12-22T17:19:59;22.90;71.90
8002;DHT22;4046;48.774;8.732;2023-12-22T17:22:25;22.80;71.80
8002;DHT22;4046;48.774;8.732;2023-12-22T17:24:50;23.10;72.20
8002;DHT22;4046;48.774;8.732;2023-12-22T17:27:16;22.80;71.80
8002;DHT22;4046;48.774;8.732;2023-12-22T17:30:08;22.80;71.80
8002;DHT22;4046;48.774;8.732;2023-12-22T17:32:56;22.80;71.80
8002;DHT22;4046;48.774;8.732;2023-12-22T17:35:23;22.80;71.80
8002;DHT22;4046;48.774;8.732;2023-12-22T17:37:59;22.80;71.80
8002;DHT22;4046;48.774;8.732;2023-12-22T17:40:35;22.80;71.80
8002;DHT22;4046;48.774;8.732;2023-12-22T17:43:34;22.90;71.90
8002;DHT22;4046;48.774;8.732;2023-12-22T17:46:10;22.80;71.80
8002;DHT22;4046;48.774;8.732;2023-12-22T17:48:45;22.80;71.80
8002;DHT22;4046;48.774;8.732;2023-12-22T17:51:12;22.80;71.80
8002;DHT22;4046;48.774;8.732;2023-12-22T17:53:44;22.80;71.70
8002;DHT22;4046;48.774;8.732;2023-12-22T17:56:10;22.90;71.80
8002;DHT22;4046;48.774;8.732;2023-12-22T17:58:36;22.90;71.90
8002;DHT22;4046;48.774;8.732;2023-12-22T18:01:04;22.90;71.80
8002;DHT22;4046;48.774;8.732;2023-12-22T18:03:30;22.90;71.80
8002;DHT22;4046;48.774;8.732;2023-12-22T18:05:55;22.90;71.80
8002;DHT22;4046;48.774;8.732;2023-12-22T18:08:22;22.90;71.80
8002;DHT22;4046;48.774;8.732;2023-12-22T18:11:21;22.90;71.80
8002;DHT22;4046;48.774;8.732;2023-12-22T18:17:00;22.90;71.70
8002;DHT22;4046;48.774;8.732;2023-12-22T18:19:59;22.90;71.80
8002;DHT22;4046;48.774;8.732;2023-12-22T18:22:39;22.90;71.80
8002;DHT22;4046;48.774;8.732;2023-12-22T18:25:17;23.00;71.90
8002;DHT22;4046;48.774;8.732;2023-12-22T18:27:43;23.00;72.80
8002;DHT22;4046;48.774;8.732;2023-12-22T18:30:16;23.00;72.00
8002;DHT22;4046;48.774;8.732;2023-12-22T18:33:22;23.00;71.90
8002;DHT22;4046;48.774;8.732;2023-12-22T18:36:20;23.00;71.90
8002;DHT22;4046;48.774;8.732;2023-12-22T18:38:52;23.00;71.80
8002;DHT22;4046;48.774;8.732;2023-12-22T18:41:42;23.00;71.80
8002;DHT22;4046;48.774;8.732;2023-12-22T18:44:36;23.10;71.90
8002;DHT22;4046;48.774;8.732;2023-12-22T18:47:22;23.10;71.80
8002;DHT22;4046;48.774;8.732;2023-12-22T18:49:48;23.10;71.80
8002;DHT22;4046;48.774;8.732;2023-12-22T18:52:51;23.20;71.90
8002;DHT22;4046;48.774;8.732;2023-12-22T18:55:38;23.20;71.80
8002;DHT22;4046;48.774;8.732;2023-12-22T19:01:19;23.20;71.80
8002;DHT22;4046;48.774;8.732;2023-12-22T19:03:54;23.20;71.80
8002;DHT22;4046;48.774;8.732;2023-12-22T19:06:38;23.10;71.80
8002;DHT22;4046;48.774;8.732;2023-12-22T19:09:23;23.10;71.70
8002;DHT22;4046;48.774;8.732;2023-12-22T19:12:11;23.10;71.70
8002;DHT22;4046;48.774;8.732;2023-12-22T19:15:15;23.20;71.80
8002;DHT22;4046;48.774;8.732;2023-12-22T19:18:04;23.20;71.80
8002;DHT22;4046;48.774;8.732;2023-12-22T19:20:57;23.20;71.80
8002;DHT22;4046;48.774;8.732;2023-12-22T19:23:43;23.20;71.80
8002;DHT22;4046;48.774;8.732;2023-12-22T19:26:53;23.20;71.80
8002;DHT22;4046;48.774;8.732;2023-12-22T19:29:31;23.10;71.70
8002;DHT22;4046;48.774;8.732;2023-12-22T19:32:00;23.10;71.80
8002;DHT22;4046;48.774;8.732;2023-12-22T19:34:46;23.10;71.80
8002;DHT22;4046;48.774;8.732;2023-12-22T19:37:24;23.10;71.80
8002;DHT22;4046;48.774;8.732;2023-12-22T19:40:09;23.10;71.70
8002;DHT22;4046;48.774;8.732;2023-12-22T19:42:50;23.10;71.80
8002;DHT22;4046;48.774;8.732;2023-12-22T19:45:25;23.10;71.80
8002;DHT22;4046;48.774;8.732;2023-12-22T19:48:00;23.10;71.70
8002;DHT22;4046;48.774;8.732;2023-12-22T19:50:33;23.30;71.90
8002;DHT22;4046;48.774;8.732;2023-12-22T19:53:00;23.10;71.70
8002;DHT22;4046;48.774;8.732;2023-12-22T19:55:37;23.10;71.80
8002;DHT22;4046;48.774;8.732;2023-12-22T19:58:04;23.10;71.70
8002;DHT22;4046;48.774;8.732;2023-12-22T20:01:12;23.10;71.70
8002;DHT22;4046;48.774;8.732;2023-12-22T20:03:47;23.10;71.70
8002;DHT22;4046;48.774;8.732;2023-12-22T20:06:13;23.10;71.80
8002;DHT22;4046;48.774;8.732;2023-12-22T20:11:39;23.10;71.80
8002;DHT22;4046;48.774;8.732;2023-12-22T20:14:15;23.10;71.80
8002;DHT22;4046;48.774;8.732;2023-12-22T20:16:45;23.10;71.80
8002;DHT22;4046;48.774;8.732;2023-12-22T20:19:31;23.10;71.80